sensor_id;sensor_type;location;lat;lon;timestamp;temperature;humidity
54461;DHT22;69977;49.414;11.010;2023-05-08T00:01:38;15.10;99.90
54461;DHT22;69977;49.414;11.010;2023-05-08T00:04:04;15.00;99.90
54461;DHT22;69977;49.414;11.010;2023-05-08T00:06:29;15.00;99.90
54461;DHT22;69977;49.414;11.010;2023-05-08T00:08:55;15.00;99.90
54461;DHT22;69977;49.414;11.010;2023-05-08T00:11:21;15.00;99.90
54461;DHT22;69977;49.414;11.010;2023-05-08T00:13:47;15.00;99.90
54461;DHT22;69977;49.414;11.010;2023-05-08T00:16:13;14.90;99.90
54461;DHT22;69977;49.414;11.010;2023-05-08T00:18:39;14.80;99.90
54461;DHT22;69977;49.414;11.010;2023-05-08T00:21:05;14.80;99.90
54461;DHT22;69977;49.414;11.010;2023-05-08T00:23:31;14.80;99.90
54461;DHT22;69977;49.414;11.010;2023-05-08T00:25:57;14.80;99.90
54461;DHT22;69977;49.414;11.010;2023-05-08T00:28:23;14.70;99.90
54461;DHT22;69977;49.414;11.010;2023-05-08T00:30:48;14.70;99.90
54461;DHT22;69977;49.414;11.010;2023-05-08T00:33:15;14.70;99.90
54461;DHT22;69977;49.414;11.010;2023-05-08T00:35:41;14.70;99.90
54461;DHT22;69977;49.414;11.010;2023-05-08T00:38:08;14.60;99.90
54461;DHT22;69977;49.414;11.010;2023-05-08T00:40:34;14.60;99.90
54461;DHT22;69977;49.414;11.010;2023-05-08T00:43:00;14.60;99.90
54461;DHT22;69977;49.414;11.010;2023-05-08T00:45:33;14.60;99.90
54461;DHT22;69977;49.414;11.010;2023-05-08T00:48:01;14.50;99.90
54461;DHT22;69977;49.414;11.010;2023-05-08T00:50:27;14.50;99.90
54461;DHT22;69977;49.414;11.010;2023-05-08T00:52:54;14.40;99.90
54461;DHT22;69977;49.414;11.010;2023-05-08T00:55:21;14.40;99.90
54461;DHT22;69977;49.414;11.010;2023-05-08T00:57:48;14.30;99.90
54461;DHT22;69977;49.414;11.010;2023-05-08T01:00:16;14.30;99.90
54461;DHT22;69977;49.414;11.010;2023-05-08T01:02:43;14.30;99.90
54461;DHT22;69977;49.414;11.010;2023-05-08T01:05:10;14.10;99.90
54461;DHT22;69977;49.414;11.010;2023-05-08T01:07:36;14.10;99.90
54461;DHT22;69977;49.414;11.010;2023-05-08T01:10:04;14.00;99.90
54461;DHT22;69977;49.414;11.010;2023-05-08T01:15:07;14.00;99.90
54461;DHT22;69977;49.414;11.010;2023-05-08T01:26:06;14.00;99.90
54461;DHT22;69977;49.414;11.010;2023-05-08T01:31:42;14.00;99.90
54461;DHT22;69977;49.414;11.010;2023-05-08T01:34:17;14.00;99.90
54461;DHT22;69977;49.414;11.010;2023-05-08T01:36:51;14.00;99.90
54461;DHT22;69977;49.414;11.010;2023-05-08T01:42:08;13.90;99.90
54461;DHT22;69977;49.414;11.010;2023-05-08T01:44:42;14.00;99.90
54461;DHT22;69977;49.414;11.010;2023-05-08T01:47:10;14.00;99.90
54461;DHT22;69977;49.414;11.010;2023-05-08T01:49:45;14.00;99.90
54461;DHT22;69977;49.414;11.010;2023-05-08T01:52:25;14.00;99.90
54461;DHT22;69977;49.414;11.010;2023-05-08T01:55:00;14.00;99.90
54461;DHT22;69977;49.414;11.010;2023-05-08T01:57:29;14.00;99.90
54461;DHT22;69977;49.414;11.010;2023-05-08T01:59:59;14.00;99.90
54461;DHT22;69977;49.414;11.010;2023-05-08T02:02:27;14.00;99.90
54461;DHT22;69977;49.414;11.010;2023-05-08T02:04:55;13.90;99.90
54461;DHT22;69977;49.414;11.010;2023-05-08T02:07:21;13.90;99.90
54461;DHT22;69977;49.414;11.010;2023-05-08T02:09:48;13.90;99.90
54461;DHT22;69977;49.414;11.010;2023-05-08T02:12:16;13.90;99.90
54461;DHT22;69977;49.414;11.010;2023-05-08T02:14:45;13.80;99.90
54461;DHT22;69977;49.414;11.010;2023-05-08T02:17:15;13.80;99.90
54461;DHT22;69977;49.414;11.010;2023-05-08T02:19:42;13.80;99.90
54461;DHT22;69977;49.414;11.010;2023-05-08T02:22:09;13.70;99.90
54461;DHT22;69977;49.414;11.010;2023-05-08T02:24:37;13.70;99.90
54461;DHT22;69977;49.414;11.010;2023-05-08T02:27:04;13.70;99.90
54461;DHT22;69977;49.414;11.010;2023-05-08T02:29:30;13.70;99.90
54461;DHT22;69977;49.414;11.010;2023-05-08T02:31:57;13.70;99.90
54461;DHT22;69977;49.414;11.010;2023-05-08T02:34:27;13.60;99.90
54461;DHT22;69977;49.414;11.010;2023-05-08T02:36:55;13.60;99.90
54461;DHT22;69977;49.414;11.010;2023-05-08T02:39:25;13.60;99.90
54461;DHT22;69977;49.414;11.010;2023-05-08T02:41:53;13.50;99.90
54461;DHT22;69977;49.414;11.010;2023-05-08T02:44:19;13.50;99.90
54461;DHT22;69977;49.414;11.010;2023-05-08T02:49:59;13.50;99.90
54461;DHT22;69977;49.414;11.010;2023-05-08T02:52:31;13.40;99.90
54461;DHT22;69977;49.414;11.010;2023-05-08T02:58:14;13.40;99.90
54461;DHT22;69977;49.414;11.010;2023-05-08T03:01:12;13.40;99.90
54461;DHT22;69977;49.414;11.010;2023-05-08T03:03:42;13.30;99.90
54461;DHT22;69977;49.414;11.010;2023-05-08T03:06:12;13.30;99.90
54461;DHT22;69977;49.414;11.010;2023-05-08T03:08:39;13.30;99.90
54461;DHT22;69977;49.414;11.010;2023-05-08T03:11:14;13.20;99.90
54461;DHT22;69977;49.414;11.010;2023-05-08T03:13:41;13.20;99.90
54461;DHT22;69977;49.414;11.010;2023-05-08T03:16:22;13.10;99.90
54461;DHT22;69977;49.414;11.010;2023-05-08T03:19:00;13.10;99.90
54461;DHT22;69977;49.414;11.010;2023-05-08T03:21:29;13.10;99.90
54461;DHT22;69977;49.414;11.010;2023-05-08T03:23:57;13.10;99.90
54461;DHT22;69977;49.414;11.010;2023-05-08T03:26:24;13.10;99.90
54461;DHT22;69977;49.414;11.010;2023-05-08T03:28:51;13.00;99.90
54461;DHT22;69977;49.414;11.010;2023-05-08T03:31:21;13.10;99.90
54461;DHT22;69977;49.414;11.010;2023-05-08T03:33:51;13.00;99.90
54461;DHT22;69977;49.414;11.010;2023-05-08T03:36:18;13.10;99.90
54461;DHT22;69977;49.414;11.010;2023-05-08T03:38:44;12.90;99.90
54461;DHT22;69977;49.414;11.010;2023-05-08T03:41:11;12.90;99.90
54461;DHT22;69977;49.414;11.010;2023-05-08T03:43:37;12.90;99.90
54461;DHT22;69977;49.414;11.010;2023-05-08T03:46:06;12.90;99.90
54461;DHT22;69977;49.414;11.010;2023-05-08T03:48:33;12.90;99.90
54461;DHT22;69977;49.414;11.010;2023-05-08T03:51:03;13.00;99.90
54461;DHT22;69977;49.414;11.010;2023-05-08T03:53:31;13.00;99.90
54461;DHT22;69977;49.414;11.010;2023-05-08T03:55:58;12.90;99.90
54461;DHT22;69977;49.414;11.010;2023-05-08T04:06:50;12.80;99.90
54461;DHT22;69977;49.414;11.010;2023-05-08T04:09:49;12.80;99.90
54461;DHT22;69977;49.414;11.010;2023-05-08T04:12:23;12.70;99.90
54461;DHT22;69977;49.414;11.010;2023-05-08T04:14:57;12.70;99.90
54461;DHT22;69977;49.414;11.010;2023-05-08T04:17:48;12.70;99.90
54461;DHT22;69977;49.414;11.010;2023-05-08T04:20:18;12.70;99.90
54461;DHT22;69977;49.414;11.010;2023-05-08T04:22:48;12.70;99.90
54461;DHT22;69977;49.414;11.010;2023-05-08T04:25:16;12.80;99.90
54461;DHT22;69977;49.414;11.010;2023-05-08T04:27:44;12.70;99.90
54461;DHT22;69977;49.414;11.010;2023-05-08T04:30:11;12.70;99.90
54461;DHT22;69977;49.414;11.010;2023-05-08T04:32:38;12.80;99.90
54461;DHT22;69977;49.414;11.010;2023-05-08T04:35:04;12.80;99.90
54461;DHT22;69977;49.414;11.010;2023-05-08T04:37:30;12.80;99.90
54461;DHT22;69977;49.414;11.010;2023-05-08T04:39:58;12.80;99.90
54461;DHT22;69977;49.414;11.010;2023-05-08T04:42:25;12.80;99.90
54461;DHT22;69977;49.414;11.010;2023-05-08T04:44:53;12.70;99.90
54461;DHT22;69977;49.414;11.010;2023-05-08T04:47:20;12.70;99.90
54461;DHT22;69977;49.414;11.010;2023-05-08T04:49:46;12.70;99.90
54461;DHT22;69977;49.414;11.010;2023-05-08T04:52:12;12.80;99.90
54461;DHT22;69977;49.414;11.010;2023-05-08T04:54:38;12.90;99.90
54461;DHT22;69977;49.414;11.010;2023-05-08T04:57:04;12.80;99.90
54461;DHT22;69977;49.414;11.010;2023-05-08T04:59:32;12.80;99.90
54461;DHT22;69977;49.414;11.010;2023-05-08T05:01:58;12.90;99.90
54461;DHT22;69977;49.414;11.010;2023-05-08T05:04:27;13.00;99.90
54461;DHT22;69977;49.414;11.010;2023-05-08T05:06:54;12.90;99.90
54461;DHT22;69977;49.414;11.010;2023-05-08T05:09:20;13.00;99.90
54461;DHT22;69977;49.414;11.010;2023-05-08T05:11:46;13.00;99.90
54461;DHT22;69977;49.414;11.010;2023-05-08T05:14:12;13.00;99.90
54461;DHT22;69977;49.414;11.010;2023-05-08T05:16:38;13.00;99.90
54461;DHT22;69977;49.414;11.010;2023-05-08T05:19:04;13.10;99.90
54461;DHT22;69977;49.414;11.010;2023-05-08T05:21:30;13.10;99.90
54461;DHT22;69977;49.414;11.010;2023-05-08T05:23:56;13.20;99.90
54461;DHT22;69977;49.414;11.010;2023-05-08T05:26:22;13.20;99.90
54461;DHT22;69977;49.414;11.010;2023-05-08T05:28:48;13.20;99.90
54461;DHT22;69977;49.414;11.010;2023-05-08T05:31:14;13.20;99.90
54461;DHT22;69977;49.414;11.010;2023-05-08T05:33:42;13.30;99.90
54461;DHT22;69977;49.414;11.010;2023-05-08T05:36:08;13.30;99.90
54461;DHT22;69977;49.414;11.010;2023-05-08T05:38:34;13.30;99.90
54461;DHT22;69977;49.414;11.010;2023-05-08T05:40:59;13.40;99.90
54461;DHT22;69977;49.414;11.010;2023-05-08T05:43:25;13.50;99.90
54461;DHT22;69977;49.414;11.010;2023-05-08T05:45:51;13.50;99.90
54461;DHT22;69977;49.414;11.010;2023-05-08T05:48:17;13.60;99.90
54461;DHT22;69977;49.414;11.010;2023-05-08T05:50:44;13.60;99.90
54461;DHT22;69977;49.414;11.010;2023-05-08T05:53:11;13.80;99.90
54461;DHT22;69977;49.414;11.010;2023-05-08T05:55:37;13.80;99.90
54461;DHT22;69977;49.414;11.010;2023-05-08T05:58:03;13.80;99.90
54461;DHT22;69977;49.414;11.010;2023-05-08T06:00:30;13.70;99.90
54461;DHT22;69977;49.414;11.010;2023-05-08T06:02:57;13.80;99.90
54461;DHT22;69977;49.414;11.010;2023-05-08T06:05:22;13.90;99.90
54461;DHT22;69977;49.414;11.010;2023-05-08T06:07:48;13.90;99.90
54461;DHT22;69977;49.414;11.010;2023-05-08T06:10:14;13.90;99.90
54461;DHT22;69977;49.414;11.010;2023-05-08T06:12:40;13.80;99.90
54461;DHT22;69977;49.414;11.010;2023-05-08T06:15:08;13.90;99.90
54461;DHT22;69977;49.414;11.010;2023-05-08T06:17:34;13.90;99.90
54461;DHT22;69977;49.414;11.010;2023-05-08T06:20:01;13.90;99.90
54461;DHT22;69977;49.414;11.010;2023-05-08T06:22:27;14.00;99.90
54461;DHT22;69977;49.414;11.010;2023-05-08T06:24:53;14.20;99.90
54461;DHT22;69977;49.414;11.010;2023-05-08T06:27:20;14.10;99.90
54461;DHT22;69977;49.414;11.010;2023-05-08T06:29:50;14.10;99.90
54461;DHT22;69977;49.414;11.010;2023-05-08T06:32:18;14.20;99.90
54461;DHT22;69977;49.414;11.010;2023-05-08T06:34:44;14.30;99.90
54461;DHT22;69977;49.414;11.010;2023-05-08T06:37:10;14.50;99.90
54461;DHT22;69977;49.414;11.010;2023-05-08T06:39:36;14.50;99.90
54461;DHT22;69977;49.414;11.010;2023-05-08T06:42:02;14.50;99.90
54461;DHT22;69977;49.414;11.010;2023-05-08T06:44:31;14.60;99.90
54461;DHT22;69977;49.414;11.010;2023-05-08T06:46:57;14.60;99.90
54461;DHT22;69977;49.414;11.010;2023-05-08T06:49:23;14.70;99.90
54461;DHT22;69977;49.414;11.010;2023-05-08T06:51:49;14.70;99.90
54461;DHT22;69977;49.414;11.010;2023-05-08T06:54:14;14.70;99.90
54461;DHT22;69977;49.414;11.010;2023-05-08T06:56:40;14.70;99.90
54461;DHT22;69977;49.414;11.010;2023-05-08T06:59:07;14.80;99.90
54461;DHT22;69977;49.414;11.010;2023-05-08T07:01:33;14.70;99.90
54461;DHT22;69977;49.414;11.010;2023-05-08T07:03:59;14.90;99.90
54461;DHT22;69977;49.414;11.010;2023-05-08T07:06:26;15.10;99.90
54461;DHT22;69977;49.414;11.010;2023-05-08T07:08:52;15.20;99.90
54461;DHT22;69977;49.414;11.010;2023-05-08T07:11:18;15.20;99.90
54461;DHT22;69977;49.414;11.010;2023-05-08T07:13:44;15.30;99.90
54461;DHT22;69977;49.414;11.010;2023-05-08T07:16:16;15.20;99.90
54461;DHT22;69977;49.414;11.010;2023-05-08T07:18:42;15.30;99.90
54461;DHT22;69977;49.414;11.010;2023-05-08T07:21:08;15.40;99.90
54461;DHT22;69977;49.414;11.010;2023-05-08T07:23:34;15.50;99.90
54461;DHT22;69977;49.414;11.010;2023-05-08T07:26:00;15.50;99.90
54461;DHT22;69977;49.414;11.010;2023-05-08T07:28:26;15.60;99.90
54461;DHT22;69977;49.414;11.010;2023-05-08T07:30:52;15.80;99.90
54461;DHT22;69977;49.414;11.010;2023-05-08T07:33:18;15.80;99.90
54461;DHT22;69977;49.414;11.010;2023-05-08T07:35:44;15.90;99.90
54461;DHT22;69977;49.414;11.010;2023-05-08T07:38:10;16.10;99.90
54461;DHT22;69977;49.414;11.010;2023-05-08T07:40:35;16.10;99.90
54461;DHT22;69977;49.414;11.010;2023-05-08T07:43:01;16.20;99.90
54461;DHT22;69977;49.414;11.010;2023-05-08T07:45:28;16.20;99.90
54461;DHT22;69977;49.414;11.010;2023-05-08T07:47:55;16.10;99.90
54461;DHT22;69977;49.414;11.010;2023-05-08T07:50:22;16.10;99.90
54461;DHT22;69977;49.414;11.010;2023-05-08T07:52:48;16.20;99.90
54461;DHT22;69977;49.414;11.010;2023-05-08T07:55:15;16.20;99.90
54461;DHT22;69977;49.414;11.010;2023-05-08T07:57:41;16.30;99.90
54461;DHT22;69977;49.414;11.010;2023-05-08T08:00:12;16.40;99.90
54461;DHT22;69977;49.414;11.010;2023-05-08T08:02:42;16.40;99.90
54461;DHT22;69977;49.414;11.010;2023-05-08T08:05:08;16.50;99.90
54461;DHT22;69977;49.414;11.010;2023-05-08T08:07:34;16.70;99.90
54461;DHT22;69977;49.414;11.010;2023-05-08T08:10:01;16.80;99.90
54461;DHT22;69977;49.414;11.010;2023-05-08T08:12:28;16.80;99.90
54461;DHT22;69977;49.414;11.010;2023-05-08T08:14:54;16.80;99.90
54461;DHT22;69977;49.414;11.010;2023-05-08T08:17:19;16.70;99.90
54461;DHT22;69977;49.414;11.010;2023-05-08T08:19:45;16.80;99.90
54461;DHT22;69977;49.414;11.010;2023-05-08T08:22:11;16.90;99.90
54461;DHT22;69977;49.414;11.010;2023-05-08T08:24:37;16.90;99.90
54461;DHT22;69977;49.414;11.010;2023-05-08T08:27:03;17.10;99.90
54461;DHT22;69977;49.414;11.010;2023-05-08T08:29:29;17.20;99.90
54461;DHT22;69977;49.414;11.010;2023-05-08T08:31:55;17.30;99.90
54461;DHT22;69977;49.414;11.010;2023-05-08T08:34:21;17.40;99.90
54461;DHT22;69977;49.414;11.010;2023-05-08T08:36:47;17.40;99.90
54461;DHT22;69977;49.414;11.010;2023-05-08T08:39:13;17.50;99.90
54461;DHT22;69977;49.414;11.010;2023-05-08T08:41:38;17.60;99.90
54461;DHT22;69977;49.414;11.010;2023-05-08T08:44:05;17.50;99.90
54461;DHT22;69977;49.414;11.010;2023-05-08T08:46:31;17.60;99.90
54461;DHT22;69977;49.414;11.010;2023-05-08T08:49:03;17.70;99.90
54461;DHT22;69977;49.414;11.010;2023-05-08T08:51:42;17.80;99.90
54461;DHT22;69977;49.414;11.010;2023-05-08T08:54:12;17.80;99.90
54461;DHT22;69977;49.414;11.010;2023-05-08T08:56:39;17.80;99.90
54461;DHT22;69977;49.414;11.010;2023-05-08T08:59:07;17.90;99.90
54461;DHT22;69977;49.414;11.010;2023-05-08T09:01:35;18.00;99.90
54461;DHT22;69977;49.414;11.010;2023-05-08T09:04:03;17.60;99.90
54461;DHT22;69977;49.414;11.010;2023-05-08T09:06:32;17.80;99.90
54461;DHT22;69977;49.414;11.010;2023-05-08T09:09:01;18.00;99.90
54461;DHT22;69977;49.414;11.010;2023-05-08T09:11:27;18.00;99.90
54461;DHT22;69977;49.414;11.010;2023-05-08T09:13:56;18.00;99.90
54461;DHT22;69977;49.414;11.010;2023-05-08T09:16:23;18.00;99.90
54461;DHT22;69977;49.414;11.010;2023-05-08T09:18:49;18.20;99.90
54461;DHT22;69977;49.414;11.010;2023-05-08T09:21:15;18.40;99.90
54461;DHT22;69977;49.414;11.010;2023-05-08T09:24:01;18.30;99.90
54461;DHT22;69977;49.414;11.010;2023-05-08T09:26:39;18.30;99.90
54461;DHT22;69977;49.414;11.010;2023-05-08T09:29:11;18.40;99.90
54461;DHT22;69977;49.414;11.010;2023-05-08T09:31:39;18.50;99.90
54461;DHT22;69977;49.414;11.010;2023-05-08T09:34:10;18.60;99.90
54461;DHT22;69977;49.414;11.010;2023-05-08T09:36:36;18.70;99.90
54461;DHT22;69977;49.414;11.010;2023-05-08T09:39:09;18.60;99.90
54461;DHT22;69977;49.414;11.010;2023-05-08T09:41:37;18.60;99.90
54461;DHT22;69977;49.414;11.010;2023-05-08T09:44:05;18.60;99.90
54461;DHT22;69977;49.414;11.010;2023-05-08T09:46:32;18.70;99.90
54461;DHT22;69977;49.414;11.010;2023-05-08T09:49:00;18.70;99.90
54461;DHT22;69977;49.414;11.010;2023-05-08T09:51:28;18.90;99.90
54461;DHT22;69977;49.414;11.010;2023-05-08T09:53:58;18.90;99.90
54461;DHT22;69977;49.414;11.010;2023-05-08T09:56:37;18.90;99.90
54461;DHT22;69977;49.414;11.010;2023-05-08T09:59:04;19.00;99.90
54461;DHT22;69977;49.414;11.010;2023-05-08T10:01:46;18.90;99.90
54461;DHT22;69977;49.414;11.010;2023-05-08T10:04:13;19.10;99.90
54461;DHT22;69977;49.414;11.010;2023-05-08T10:06:39;19.10;99.90
54461;DHT22;69977;49.414;11.010;2023-05-08T10:09:14;19.20;99.90
54461;DHT22;69977;49.414;11.010;2023-05-08T10:11:47;19.20;99.90
54461;DHT22;69977;49.414;11.010;2023-05-08T10:14:16;19.10;99.90
54461;DHT22;69977;49.414;11.010;2023-05-08T10:16:44;18.70;99.90
54461;DHT22;69977;49.414;11.010;2023-05-08T10:19:15;18.80;99.90
54461;DHT22;69977;49.414;11.010;2023-05-08T10:21:45;19.00;99.90
54461;DHT22;69977;49.414;11.010;2023-05-08T10:24:18;19.00;99.90
54461;DHT22;69977;49.414;11.010;2023-05-08T10:27:18;19.20;99.90
54461;DHT22;69977;49.414;11.010;2023-05-08T10:29:55;19.30;99.90
54461;DHT22;69977;49.414;11.010;2023-05-08T10:32:25;19.50;99.90
54461;DHT22;69977;49.414;11.010;2023-05-08T10:34:57;19.50;99.90
54461;DHT22;69977;49.414;11.010;2023-05-08T10:37:23;19.60;99.90
54461;DHT22;69977;49.414;11.010;2023-05-08T10:39:49;19.60;99.90
54461;DHT22;69977;49.414;11.010;2023-05-08T10:42:16;20.00;99.90
54461;DHT22;69977;49.414;11.010;2023-05-08T10:44:43;20.40;99.90
54461;DHT22;69977;49.414;11.010;2023-05-08T10:47:43;20.40;99.90
54461;DHT22;69977;49.414;11.010;2023-05-08T10:55:51;20.70;99.90
54461;DHT22;69977;49.414;11.010;2023-05-08T11:03:22;20.20;99.90
54461;DHT22;69977;49.414;11.010;2023-05-08T11:05:50;20.20;99.90
54461;DHT22;69977;49.414;11.010;2023-05-08T11:08:18;20.40;99.90
54461;DHT22;69977;49.414;11.010;2023-05-08T11:10:50;20.30;99.90
54461;DHT22;69977;49.414;11.010;2023-05-08T11:13:18;20.80;99.90
54461;DHT22;69977;49.414;11.010;2023-05-08T11:15:49;21.20;99.90
54461;DHT22;69977;49.414;11.010;2023-05-08T11:18:16;20.70;99.90
54461;DHT22;69977;49.414;11.010;2023-05-08T11:23:32;21.00;99.90
54461;DHT22;69977;49.414;11.010;2023-05-08T11:26:11;20.80;99.90
54461;DHT22;69977;49.414;11.010;2023-05-08T11:28:55;20.80;99.90
54461;DHT22;69977;49.414;11.010;2023-05-08T11:31:22;20.50;99.90
54461;DHT22;69977;49.414;11.010;2023-05-08T11:33:48;20.50;99.90
54461;DHT22;69977;49.414;11.010;2023-05-08T11:36:15;20.50;99.90
54461;DHT22;69977;49.414;11.010;2023-05-08T11:38:42;20.50;99.90
54461;DHT22;69977;49.414;11.010;2023-05-08T11:41:21;20.80;99.90
54461;DHT22;69977;49.414;11.010;2023-05-08T11:46:48;20.90;99.90
54461;DHT22;69977;49.414;11.010;2023-05-08T11:49:19;21.00;99.90
54461;DHT22;69977;49.414;11.010;2023-05-08T11:51:48;21.10;99.90
54461;DHT22;69977;49.414;11.010;2023-05-08T11:54:16;20.90;99.90
54461;DHT22;69977;49.414;11.010;2023-05-08T11:56:44;20.90;99.90
54461;DHT22;69977;49.414;11.010;2023-05-08T11:59:10;20.80;99.90
54461;DHT22;69977;49.414;11.010;2023-05-08T12:01:36;21.10;99.90
54461;DHT22;69977;49.414;11.010;2023-05-08T12:04:07;21.00;99.90
54461;DHT22;69977;49.414;11.010;2023-05-08T12:06:36;20.80;99.90
54461;DHT22;69977;49.414;11.010;2023-05-08T12:09:08;20.80;99.90
54461;DHT22;69977;49.414;11.010;2023-05-08T12:11:34;20.70;99.90
54461;DHT22;69977;49.414;11.010;2023-05-08T12:14:00;20.80;99.90
54461;DHT22;69977;49.414;11.010;2023-05-08T12:16:25;20.80;99.90
54461;DHT22;69977;49.414;11.010;2023-05-08T12:18:52;20.60;99.90
54461;DHT22;69977;49.414;11.010;2023-05-08T12:21:20;20.70;99.90
54461;DHT22;69977;49.414;11.010;2023-05-08T12:23:46;20.70;99.90
54461;DHT22;69977;49.414;11.010;2023-05-08T12:26:12;20.50;99.90
54461;DHT22;69977;49.414;11.010;2023-05-08T12:28:38;20.50;99.90
54461;DHT22;69977;49.414;11.010;2023-05-08T12:31:05;20.50;99.90
54461;DHT22;69977;49.414;11.010;2023-05-08T12:33:32;20.30;99.90
54461;DHT22;69977;49.414;11.010;2023-05-08T12:35:59;20.40;99.90
54461;DHT22;69977;49.414;11.010;2023-05-08T12:38:28;20.60;99.90
54461;DHT22;69977;49.414;11.010;2023-05-08T12:40:54;20.70;99.90
54461;DHT22;69977;49.414;11.010;2023-05-08T12:43:29;21.10;99.90
54461;DHT22;69977;49.414;11.010;2023-05-08T12:45:55;21.30;99.90
54461;DHT22;69977;49.414;11.010;2023-05-08T12:48:21;21.30;99.90
54461;DHT22;69977;49.414;11.010;2023-05-08T12:50:47;21.30;99.90
54461;DHT22;69977;49.414;11.010;2023-05-08T12:53:17;21.30;99.90
54461;DHT22;69977;49.414;11.010;2023-05-08T12:55:54;21.40;99.90
54461;DHT22;69977;49.414;11.010;2023-05-08T12:58:24;21.40;99.90
54461;DHT22;69977;49.414;11.010;2023-05-08T13:00:52;21.70;99.90
54461;DHT22;69977;49.414;11.010;2023-05-08T13:03:28;21.90;99.90
54461;DHT22;69977;49.414;11.010;2023-05-08T13:05:56;22.20;99.90
54461;DHT22;69977;49.414;11.010;2023-05-08T13:08:36;22.10;99.90
54461;DHT22;69977;49.414;11.010;2023-05-08T13:11:05;21.90;99.90
54461;DHT22;69977;49.414;11.010;2023-05-08T13:13:35;21.90;99.90
54461;DHT22;69977;49.414;11.010;2023-05-08T13:16:03;22.20;99.90
54461;DHT22;69977;49.414;11.010;2023-05-08T13:18:29;22.10;99.90
54461;DHT22;69977;49.414;11.010;2023-05-08T13:20:56;22.30;99.90
54461;DHT22;69977;49.414;11.010;2023-05-08T13:23:22;22.50;99.90
54461;DHT22;69977;49.414;11.010;2023-05-08T13:25:48;22.30;99.90
54461;DHT22;69977;49.414;11.010;2023-05-08T13:28:15;21.90;99.90
54461;DHT22;69977;49.414;11.010;2023-05-08T13:30:40;21.80;99.90
54461;DHT22;69977;49.414;11.010;2023-05-08T13:33:06;21.70;99.90
54461;DHT22;69977;49.414;11.010;2023-05-08T13:35:33;21.90;99.90
54461;DHT22;69977;49.414;11.010;2023-05-08T13:37:59;22.00;99.90
54461;DHT22;69977;49.414;11.010;2023-05-08T13:40:26;22.00;99.90
54461;DHT22;69977;49.414;11.010;2023-05-08T13:42:52;22.00;99.90
54461;DHT22;69977;49.414;11.010;2023-05-08T13:45:18;21.40;99.90
54461;DHT22;69977;49.414;11.010;2023-05-08T13:47:45;21.30;99.90
54461;DHT22;69977;49.414;11.010;2023-05-08T13:50:13;21.50;99.90
54461;DHT22;69977;49.414;11.010;2023-05-08T13:52:39;21.70;99.90
54461;DHT22;69977;49.414;11.010;2023-05-08T13:55:06;21.70;99.90
54461;DHT22;69977;49.414;11.010;2023-05-08T13:57:33;21.70;99.90
54461;DHT22;69977;49.414;11.010;2023-05-08T13:59:59;21.70;99.90
54461;DHT22;69977;49.414;11.010;2023-05-08T14:02:25;21.80;99.90
54461;DHT22;69977;49.414;11.010;2023-05-08T14:04:51;21.60;99.90
54461;DHT22;69977;49.414;11.010;2023-05-08T14:11:00;22.70;99.90
54461;DHT22;69977;49.414;11.010;2023-05-08T14:13:26;21.80;99.90
54461;DHT22;69977;49.414;11.010;2023-05-08T14:15:52;21.50;99.90
54461;DHT22;69977;49.414;11.010;2023-05-08T14:18:18;21.30;99.90
54461;DHT22;69977;49.414;11.010;2023-05-08T14:20:43;21.30;99.90
54461;DHT22;69977;49.414;11.010;2023-05-08T14:23:09;21.30;99.90
54461;DHT22;69977;49.414;11.010;2023-05-08T14:25:35;21.20;99.90
54461;DHT22;69977;49.414;11.010;2023-05-08T14:28:01;21.30;99.90
54461;DHT22;69977;49.414;11.010;2023-05-08T14:30:26;21.40;99.90
54461;DHT22;69977;49.414;11.010;2023-05-08T14:32:52;21.40;99.90
54461;DHT22;69977;49.414;11.010;2023-05-08T14:35:18;21.40;99.90
54461;DHT22;69977;49.414;11.010;2023-05-08T14:37:44;21.40;99.90
54461;DHT22;69977;49.414;11.010;2023-05-08T14:40:10;21.20;99.90
54461;DHT22;69977;49.414;11.010;2023-05-08T14:42:35;21.10;99.90
54461;DHT22;69977;49.414;11.010;2023-05-08T14:45:03;20.90;99.90
54461;DHT22;69977;49.414;11.010;2023-05-08T14:47:29;20.90;99.90
54461;DHT22;69977;49.414;11.010;2023-05-08T14:49:56;20.90;99.90
54461;DHT22;69977;49.414;11.010;2023-05-08T14:52:23;20.90;99.90
54461;DHT22;69977;49.414;11.010;2023-05-08T14:54:49;21.00;99.90
54461;DHT22;69977;49.414;11.010;2023-05-08T14:57:18;21.00;99.90
54461;DHT22;69977;49.414;11.010;2023-05-08T14:59:44;21.00;99.90
54461;DHT22;69977;49.414;11.010;2023-05-08T15:02:10;21.00;99.90
54461;DHT22;69977;49.414;11.010;2023-05-08T15:04:35;20.90;99.90
54461;DHT22;69977;49.414;11.010;2023-05-08T15:07:05;20.80;99.90
54461;DHT22;69977;49.414;11.010;2023-05-08T15:09:31;20.90;99.90
54461;DHT22;69977;49.414;11.010;2023-05-08T15:11:57;20.80;99.90
54461;DHT22;69977;49.414;11.010;2023-05-08T15:14:23;20.80;99.90
54461;DHT22;69977;49.414;11.010;2023-05-08T15:16:49;20.70;99.90
54461;DHT22;69977;49.414;11.010;2023-05-08T15:19:15;20.70;99.90
54461;DHT22;69977;49.414;11.010;2023-05-08T15:21:41;20.50;99.90
54461;DHT22;69977;49.414;11.010;2023-05-08T15:24:07;20.40;99.90
54461;DHT22;69977;49.414;11.010;2023-05-08T15:26:33;20.30;99.90
54461;DHT22;69977;49.414;11.010;2023-05-08T15:28:59;20.20;99.90
54461;DHT22;69977;49.414;11.010;2023-05-08T15:31:25;20.20;99.90
54461;DHT22;69977;49.414;11.010;2023-05-08T15:33:50;20.00;99.90
54461;DHT22;69977;49.414;11.010;2023-05-08T15:36:16;19.90;99.90
54461;DHT22;69977;49.414;11.010;2023-05-08T15:38:42;19.90;99.90
54461;DHT22;69977;49.414;11.010;2023-05-08T15:41:09;19.80;99.90
54461;DHT22;69977;49.414;11.010;2023-05-08T15:43:37;19.80;99.90
54461;DHT22;69977;49.414;11.010;2023-05-08T15:46:03;19.70;99.90
54461;DHT22;69977;49.414;11.010;2023-05-08T15:48:29;19.70;99.90
54461;DHT22;69977;49.414;11.010;2023-05-08T15:50:55;19.70;99.90
54461;DHT22;69977;49.414;11.010;2023-05-08T15:53:21;19.70;99.90
54461;DHT22;69977;49.414;11.010;2023-05-08T15:55:47;19.70;99.90
54461;DHT22;69977;49.414;11.010;2023-05-08T15:58:12;19.70;99.90
54461;DHT22;69977;49.414;11.010;2023-05-08T16:00:38;19.60;99.90
54461;DHT22;69977;49.414;11.010;2023-05-08T16:03:04;19.60;99.90
54461;DHT22;69977;49.414;11.010;2023-05-08T16:05:30;19.50;99.90
54461;DHT22;69977;49.414;11.010;2023-05-08T16:07:55;19.50;99.90
54461;DHT22;69977;49.414;11.010;2023-05-08T16:10:21;19.60;99.90
54461;DHT22;69977;49.414;11.010;2023-05-08T16:12:47;19.60;99.90